AQQ10 IFIS: Internet Flight Information System
logo dgac
Lunes 27 de Septiembre del 2021
Buscar por aerodromo o helipuerto
Ingrese nombre de aeródromo, localidad o designador OACI:
METAR del 27-09-2021 a las 00:00 UTC
Para mayor información visite www.meteochile.cl
METAR SCTN 270000Z AUTO 12004KT 9999 FEW020 OVC037 07/05 Q1025
Viento: dirección 120 grados, velocidad 4 nudos
Visibilidad: 10 km o más
Nubes: Escasa nubosidad a 2000 pies sobre el nivel del aeródromo
Nubes: Cubierto a 3700 pies sobre el nivel del aeródromo
Temperatura: 7 °C
Rocío: 5 °C
Humedad_relativa: 87%
Presión: 1025 hPa
METAR del 26-09-2021 a las 23:00 UTC
Para mayor información visite www.meteochile.cl
METAR SCTN 262300Z AUTO 09005KT 9999 BKN047 08/03 Q1024
Viento: dirección 090 grados, velocidad 5 nudos
Visibilidad: 10 km o más
Nubes: Nublado a 4700 pies sobre el nivel del aeródromo
Temperatura: 8 °C
Rocío: 3 °C
Humedad_relativa: 71%
Presión: 1024 hPa
METAR del 26-09-2021 a las 22:00 UTC
Para mayor información visite www.meteochile.cl
METAR SCTN 262200Z AUTO 03004KT 350V070 9999 OVC048 10/03 Q1024
Viento: dirección 030 grados, velocidad 4 nudos
Viento con dirección variable entre 350 y 070 grados
Visibilidad: 10 km o más
Nubes: Cubierto a 4800 pies sobre el nivel del aeródromo
Temperatura: 10 °C
Rocío: 3 °C
Humedad_relativa: 62%
Presión: 1024 hPa
METAR del 26-09-2021 a las 21:00 UTC
Para mayor información visite www.meteochile.cl
METAR SCTN 262100Z AUTO 36006KT 9999 OVC049 10/02 Q1024
Viento: dirección 360 grados, velocidad 6 nudos
Visibilidad: 10 km o más
Nubes: Cubierto a 4900 pies sobre el nivel del aeródromo
Temperatura: 10 °C
Rocío: 2 °C
Humedad_relativa: 58%
Presión: 1024 hPa
METAR del 26-09-2021 a las 20:00 UTC
Para mayor información visite www.meteochile.cl
METAR SCTN 262000Z AUTO 33008KT CAVOK 10/02 Q1024
Viento: dirección 330 grados, velocidad 8 nudos
Visibilidad: 10 km o más,
    sin nubes bajo los 5.000 pies o bajo del MSA (Mínimo de Seguridad del Aeródromo),
    sin cumulonimbus, y sin fenómenos de tiempo significativo en el aeródromo o alrededores
Temperatura: 10 °C
Rocío: 2 °C
Humedad_relativa: 58%
Presión: 1024 hPa
METAR del 26-09-2021 a las 19:00 UTC
Para mayor información visite www.meteochile.cl
METAR SCTN 261900Z AUTO 33010KT CAVOK 10/03 Q1024
Viento: dirección 330 grados, velocidad 10 nudos
Visibilidad: 10 km o más,
    sin nubes bajo los 5.000 pies o bajo del MSA (Mínimo de Seguridad del Aeródromo),
    sin cumulonimbus, y sin fenómenos de tiempo significativo en el aeródromo o alrededores
Temperatura: 10 °C
Rocío: 3 °C
Humedad_relativa: 62%
Presión: 1024 hPa
METAR del 26-09-2021 a las 18:00 UTC
Para mayor información visite www.meteochile.cl
METAR SCTN 261800Z AUTO 33012KT CAVOK 10/03 Q1025
Viento: dirección 330 grados, velocidad 12 nudos
Visibilidad: 10 km o más,
    sin nubes bajo los 5.000 pies o bajo del MSA (Mínimo de Seguridad del Aeródromo),
    sin cumulonimbus, y sin fenómenos de tiempo significativo en el aeródromo o alrededores
Temperatura: 10 °C
Rocío: 3 °C
Humedad_relativa: 62%
Presión: 1025 hPa
METAR del 26-09-2021 a las 17:00 UTC
Para mayor información visite www.meteochile.cl
METAR SCTN 261700Z AUTO 33010KT 290V350 //// R/////// NCD 10/03 Q1025
Viento: dirección 330 grados, velocidad 10 nudos
Viento con dirección variable entre 290 y 350 grados
Temperatura: 10 °C
Rocío: 3 °C
Humedad_relativa: 62%
Presión: 1025 hPa
METAR del 26-09-2021 a las 16:00 UTC
Para mayor información visite www.meteochile.cl
METAR SCTN 261600Z 33008KT 300V020 9999 SCT012 BKN033 09/04 Q1026
Viento: dirección 330 grados, velocidad 8 nudos
Viento con dirección variable entre 300 y 020 grados
Visibilidad: 10 km o más
Nubes: Nubosidad parcial a 1200 pies sobre el nivel del aeródromo
Nubes: Nublado a 3300 pies sobre el nivel del aeródromo
Temperatura: 9 °C
Rocío: 4 °C
Humedad_relativa: 71%
Presión: 1026 hPa
METAR del 26-09-2021 a las 15:00 UTC
Para mayor información visite www.meteochile.cl
METAR SCTN 261500Z 35006KT 260V050 9999 SCT012 BKN033 08/02 Q1026
Viento: dirección 350 grados, velocidad 6 nudos
Viento con dirección variable entre 260 y 050 grados
Visibilidad: 10 km o más
Nubes: Nubosidad parcial a 1200 pies sobre el nivel del aeródromo
Nubes: Nublado a 3300 pies sobre el nivel del aeródromo
Temperatura: 8 °C
Rocío: 2 °C
Humedad_relativa: 66%
Presión: 1026 hPa